CheckWX is a tool to help pilots better visualize weather data.  It is not intended as a substitute for an official pre-flight weather briefing.

17:21:57 UTC

UTNN TAF
Nukus Airport
Nukus, Uzbekistan
TAF UTNN 181100Z 1812/1912 04008G18KT 9999 SCT040 BKN100 TEMPO 1812/1819 VRB04KT

Jun-18@
12:00 UTC

Jun-18 @ 12:00 UTC

Jun-19@
12:00 UTC

Jun-19 @ 12:00 UTC

TAF UTNN 181100Z 1812/1912 04008G18KT 9999 SCT040 BKN100
Wind
  • 040° at 8 KTS
  • {Gusting to 18 KTS
Cloud Levels
  • Scattered at 4,000' AGL
  • Broken at 10,000' AGL

Jun-18@
12:00 UTC

Jun-18 @ 12:00 UTC

Jun-18@
19:00 UTC

Jun-18 @ 19:00 UTC

TEMPO 1812/1819 VRB04KT

Temporary

Temporary Changes expected for less than half the time period

Wind
  • Variable at 4 KTS